Terminal Aerodrome Forecast
Issued by NWS

Home | Current Version | Previous Version | Text Only | Print | Product List | Glossary On
Versions: 1 2 3 4 5 6 7 8 9 10 11 12 13 14 15 16 17 18 19 20 21 22
000
FTUS46 KLOX 301700
TAFSBP
TAF
KSBP 301729Z 3018/3118 00000KT P6SM SCT150
     FM302100 29012KT P6SM BKN150
     FM310300 31007KT P6SM SCT150
     FM310900 VRB03KT P6SM BKN006=

USA.gov is the U.S. government's official web portal to all federal, state and local government web resources and services.